Amelia Island, Florida
Current Conditions -  °F | °C
As of 11:15 AM on Sunday 25 Jan 2015 (Local Time) from KFHB Reporting Station
Clear Clear  
Wind Chill: 15°   Ceiling: Unl
Heat Index: 15°   Visibility: 10mi
Dew Point:   Wind: 5mph
Humidity: 39%   Direction: 280°W
Pressure: 30.04"   Gusts: NA
Location:  30.6056°N, 81.5268°W
Report Text: KFHB 251615Z AUTO 28004KT 10SM CLR 15/01 A3004 RMK AO1
Loading
Personal Weather Stations






























Interactive Weather Map New forecast layout! Learn more

10-Day Weather Forecast

Advertisements
Track Severe Weather on mobile